Colintraive, United Kingdom
Current Conditions -  °F | °C
As of 1:20 AM on Friday 19 Dec 2014 (Local Time) from EGPF Reporting Station
Light Rain Light Rain  
Wind Chill: 31°   Ceiling: 2000
Heat Index: 41°   Visibility: 6mi
Dew Point: 37°   Wind: 23mph
Humidity: 87%   Direction: 250°WSW
Pressure: 29.5"   Gusts: 36mph
Location:  56.01°N, 5.21°W
Report Text: EGPF 190120Z AUTO 25020G31KT 9999 -RA FEW011/// BKN020/// //////TCU 05/03 Q0999 RERA
Loading
Personal Weather Stations






























Interactive Weather Map New forecast layout! Learn more

10-Day Weather Forecast

Advertisements
Track Severe Weather on mobile